createdAt,value
2023-11-29T00:02:22.582Z,91045.78
2023-11-29T00:04:52.164Z,91036.16
2023-11-29T00:07:21.739Z,91048.72
2023-11-29T00:09:51.513Z,91053.31
2023-11-29T00:12:21.015Z,91057.09
2023-11-29T00:14:50.602Z,91066.38
2023-11-29T00:17:21.790Z,91062.38
2023-11-29T00:19:51.375Z,91067.16
2023-11-29T00:22:20.935Z,91066.69
2023-11-29T00:24:50.581Z,91059.44
2023-11-29T00:27:22.479Z,91065.69
2023-11-29T00:29:52.046Z,91062.22
2023-11-29T00:32:23.258Z,91059.19
2023-11-29T00:34:53.026Z,91065.97
2023-11-29T00:37:22.548Z,91062.00
2023-11-29T00:39:51.995Z,91075.13
2023-11-29T00:42:21.633Z,91088.03
2023-11-29T00:46:09.307Z,91090.63
2023-11-29T00:48:38.778Z,91084.88
2023-11-29T00:51:09.307Z,91074.44
2023-11-29T00:53:38.937Z,91072.81
2023-11-29T00:56:10.492Z,91076.44
2023-11-29T00:58:40.171Z,91075.97
2023-11-29T01:01:11.257Z,91086.56
2023-11-29T01:03:41.118Z,91097.81
2023-11-29T01:06:11.118Z,91096.88
2023-11-29T01:08:42.154Z,91094.53
2023-11-29T01:11:12.368Z,91102.75
2023-11-29T01:13:41.904Z,91098.31
2023-11-29T01:16:14.354Z,91089.84
2023-11-29T01:18:45.305Z,91083.03
2023-11-29T01:21:22.035Z,91068.41
2023-11-29T01:23:55.179Z,91067.69
2023-11-29T01:26:24.922Z,91078.31
2023-11-29T01:28:54.549Z,91081.94
2023-11-29T01:31:27.883Z,91073.97
2023-11-29T01:33:58.774Z,91076.91
2023-11-29T01:36:29.659Z,91090.94
2023-11-29T01:38:59.363Z,91094.41
2023-11-29T01:41:29.113Z,91102.06
2023-11-29T01:43:58.730Z,91105.22
2023-11-29T01:46:32.388Z,91104.97
2023-11-29T01:49:02.178Z,91097.84
2023-11-29T01:51:32.255Z,91110.63
2023-11-29T01:54:03.843Z,91100.44
2023-11-29T01:56:33.498Z,91100.44
2023-11-29T01:59:03.056Z,91096.94
2023-11-29T02:01:34.261Z,91100.25
2023-11-29T02:04:04.049Z,91117.19
2023-11-29T02:06:33.654Z,91119.41
2023-11-29T02:09:03.906Z,91132.19
2023-11-29T02:11:40.328Z,91131.47
2023-11-29T02:14:10.366Z,91137.19
2023-11-29T02:16:41.499Z,91155.25
2023-11-29T02:19:11.177Z,91161.31
2023-11-29T02:21:41.267Z,91162.50
2023-11-29T02:24:16.600Z,91161.31
2023-11-29T02:26:47.709Z,91166.59
2023-11-29T02:29:17.345Z,91167.63
2023-11-29T02:31:46.919Z,91166.06
2023-11-29T02:34:16.574Z,91170.28
2023-11-29T02:36:46.174Z,91183.53
2023-11-29T02:39:14.778Z,91197.19
2023-11-29T02:41:45.877Z,91194.00
2023-11-29T02:44:15.617Z,91196.09
2023-11-29T02:46:45.728Z,91208.66
2023-11-29T02:49:15.452Z,91209.31
2023-11-29T02:51:45.056Z,91214.91
2023-11-29T02:54:14.703Z,91219.00
2023-11-29T02:56:45.886Z,91226.63
2023-11-29T02:59:15.509Z,91221.81
2023-11-29T03:01:44.990Z,91222.94
2023-11-29T03:04:14.858Z,91217.16
2023-11-29T03:06:44.274Z,91223.41
2023-11-29T03:09:13.950Z,91224.94
2023-11-29T03:11:43.569Z,91227.72
2023-11-29T03:14:14.694Z,91230.63
2023-11-29T03:16:44.174Z,91224.56
2023-11-29T03:19:13.784Z,91226.53
2023-11-29T03:21:43.299Z,91236.63
2023-11-29T03:24:12.981Z,91241.50
2023-11-29T03:26:45.571Z,91246.38
2023-11-29T03:29:16.616Z,91248.44
2023-11-29T03:31:46.277Z,91251.72
2023-11-29T03:34:16.325Z,91251.72
2023-11-29T03:36:45.968Z,91252.00
2023-11-29T03:39:15.827Z,91257.50
2023-11-29T03:41:45.535Z,91260.09
2023-11-29T03:47:09.195Z,91262.47
2023-11-29T03:49:38.818Z,91270.72
2023-11-29T03:52:08.498Z,91268.47
2023-11-29T03:54:37.970Z,91268.19
2023-11-29T03:57:08.106Z,91280.34
2023-11-29T03:59:37.734Z,91283.44
2023-11-29T04:02:09.075Z,91286.22
2023-11-29T04:04:38.637Z,91294.75
2023-11-29T04:07:08.368Z,91291.69
2023-11-29T04:09:38.040Z,91284.69
2023-11-29T04:12:08.482Z,91294.47
2023-11-29T04:14:38.748Z,91303.63
2023-11-29T04:17:09.780Z,91296.19
2023-11-29T04:19:42.001Z,91298.88
2023-11-29T04:22:11.720Z,91300.00
2023-11-29T04:24:41.287Z,91308.84
2023-11-29T04:27:10.814Z,91319.22
2023-11-29T04:29:40.387Z,91313.16
2023-11-29T04:32:11.587Z,91321.81
2023-11-29T04:34:47.338Z,91331.97
2023-11-29T04:37:17.900Z,91328.69
2023-11-29T04:39:47.617Z,91335.84
2023-11-29T04:42:17.201Z,91334.41
2023-11-29T04:44:47.023Z,91343.16
2023-11-29T04:47:19.946Z,91338.94
2023-11-29T04:49:49.310Z,91340.97
2023-11-29T04:52:19.853Z,91348.25
2023-11-29T04:54:49.567Z,91345.47
2023-11-29T04:57:19.333Z,91349.72
2023-11-29T04:59:48.939Z,91360.06
2023-11-29T05:02:20.624Z,91355.09
2023-11-29T05:04:50.434Z,91361.53
2023-11-29T05:07:20.083Z,91356.50
2023-11-29T05:09:49.737Z,91363.63
2023-11-29T05:12:19.472Z,91362.50
2023-11-29T05:14:49.368Z,91368.88
2023-11-29T05:17:20.414Z,91365.66
2023-11-29T05:19:50.021Z,91370.06
2023-11-29T05:22:19.587Z,91371.09
2023-11-29T05:24:49.213Z,91368.81
2023-11-29T05:27:18.970Z,91368.81
2023-11-29T05:29:48.757Z,91376.25
2023-11-29T05:32:19.966Z,91378.59
2023-11-29T05:34:49.540Z,91392.19
2023-11-29T05:37:19.220Z,91392.38
2023-11-29T05:39:50.050Z,91398.63
2023-11-29T05:42:19.625Z,91402.00
2023-11-29T05:44:51.096Z,91393.41
2023-11-29T05:47:22.018Z,91395.75
2023-11-29T05:49:51.873Z,91396.03
2023-11-29T05:52:21.462Z,91400.47
2023-11-29T05:54:50.915Z,91410.81
2023-11-29T05:57:20.470Z,91412.38
2023-11-29T05:59:50.401Z,91417.34
2023-11-29T06:02:21.411Z,91409.34
2023-11-29T06:04:51.105Z,91415.03
2023-11-29T06:07:20.540Z,91419.06
2023-11-29T06:09:50.220Z,91433.19
2023-11-29T06:12:19.830Z,91434.34
2023-11-29T06:14:50.095Z,91442.47
2023-11-29T06:17:21.901Z,91436.22
2023-11-29T06:19:54.974Z,91440.97
2023-11-29T06:22:24.585Z,91450.78
2023-11-29T06:24:54.662Z,91447.28
2023-11-29T06:27:24.338Z,91445.63
2023-11-29T06:29:54.153Z,91452.22
2023-11-29T06:32:25.312Z,91455.34
2023-11-29T06:34:57.307Z,91454.66
2023-11-29T06:37:26.990Z,91460.97
2023-11-29T06:39:57.023Z,91466.53
2023-11-29T06:42:26.601Z,91479.31
2023-11-29T06:47:08.990Z,91488.59
2023-11-29T06:49:39.923Z,91480.50
2023-11-29T06:52:10.040Z,91490.28
2023-11-29T06:54:39.553Z,91485.69
2023-11-29T06:57:09.265Z,91499.59
2023-11-29T06:59:38.925Z,91497.97
2023-11-29T07:02:10.677Z,91494.47
2023-11-29T07:04:40.762Z,91499.44
2023-11-29T07:07:10.541Z,91497.06
2023-11-29T07:09:40.265Z,91504.88
2023-11-29T07:12:10.978Z,91496.41
2023-11-29T07:14:40.604Z,91495.34
2023-11-29T07:17:14.304Z,91496.88
2023-11-29T07:19:44.199Z,91493.75
2023-11-29T07:22:13.904Z,91495.34
2023-11-29T07:24:43.588Z,91495.50
2023-11-29T07:27:14.537Z,91501.56
2023-11-29T07:29:44.366Z,91505.84
2023-11-29T07:32:16.319Z,91507.44
2023-11-29T07:34:48.853Z,91509.63
2023-11-29T07:37:21.283Z,91504.16
2023-11-29T07:39:50.895Z,91495.84
2023-11-29T07:42:20.465Z,91498.25
2023-11-29T07:44:50.549Z,91493.44
2023-11-29T07:47:21.608Z,91509.44
2023-11-29T07:49:51.291Z,91509.34
2023-11-29T07:52:20.860Z,91518.41
2023-11-29T07:54:50.499Z,91518.34
2023-11-29T07:57:20.048Z,91522.91
2023-11-29T07:59:49.736Z,91535.94
2023-11-29T08:02:20.845Z,91529.03
2023-11-29T08:04:51.298Z,91534.38
2023-11-29T08:07:20.892Z,91538.38
2023-11-29T08:09:50.530Z,91541.13
2023-11-29T08:12:20.076Z,91543.03
2023-11-29T08:14:51.011Z,91547.06
2023-11-29T08:17:22.409Z,91545.91
2023-11-29T08:19:52.090Z,91554.44
2023-11-29T08:22:21.578Z,91560.78
2023-11-29T08:24:51.311Z,91560.94
2023-11-29T08:27:21.654Z,91557.97
2023-11-29T08:29:51.485Z,91564.78
2023-11-29T08:32:22.677Z,91557.81
2023-11-29T08:34:52.451Z,91551.53
2023-11-29T08:37:22.676Z,91555.22
2023-11-29T08:39:52.254Z,91554.94
2023-11-29T08:42:22.181Z,91558.22
2023-11-29T08:44:52.348Z,91558.75
2023-11-29T08:47:23.397Z,91553.38
2023-11-29T08:49:53.093Z,91560.59
2023-11-29T08:52:25.475Z,91565.25
2023-11-29T08:54:55.701Z,91566.34
2023-11-29T08:57:25.650Z,91567.44
2023-11-29T08:59:55.807Z,91573.53
2023-11-29T09:02:29.070Z,91576.78
2023-11-29T09:04:59.224Z,91574.84
2023-11-29T09:07:28.741Z,91580.03
2023-11-29T09:09:59.721Z,91577.19
2023-11-29T09:12:29.269Z,91576.94
2023-11-29T09:14:59.067Z,91574.34
2023-11-29T09:17:30.313Z,91569.84
2023-11-29T09:20:00.324Z,91581.19
2023-11-29T09:22:31.458Z,91571.94
2023-11-29T09:25:02.794Z,91573.72
2023-11-29T09:27:33.282Z,91562.88
2023-11-29T09:30:03.156Z,91568.34
2023-11-29T09:32:36.436Z,91560.25
2023-11-29T09:35:06.889Z,91563.69
2023-11-29T09:37:37.293Z,91556.13
2023-11-29T09:40:09.799Z,91558.06
2023-11-29T09:42:40.949Z,91565.56
2023-11-29T09:47:09.159Z,91578.59
2023-11-29T09:49:39.002Z,91572.38
2023-11-29T09:52:09.110Z,91574.34
2023-11-29T09:54:38.717Z,91572.56
2023-11-29T09:57:08.798Z,91574.66
2023-11-29T09:59:38.494Z,91566.22
2023-11-29T10:02:09.819Z,91564.19
2023-11-29T10:04:41.641Z,91567.84
2023-11-29T10:07:12.320Z,91575.13
2023-11-29T10:09:42.150Z,91569.47
2023-11-29T10:12:12.601Z,91579.72
2023-11-29T10:14:43.236Z,91570.97
2023-11-29T10:17:18.767Z,91575.22
2023-11-29T10:19:49.314Z,91571.81
2023-11-29T10:22:19.475Z,91576.75
2023-11-29T10:24:49.074Z,91575.53
2023-11-29T10:27:20.795Z,91570.72
2023-11-29T10:29:50.522Z,91562.38
2023-11-29T10:32:22.160Z,91569.75
2023-11-29T10:34:54.236Z,91572.44
2023-11-29T10:37:24.006Z,91580.13
2023-11-29T10:39:58.364Z,91568.06
2023-11-29T10:42:27.980Z,91573.59
2023-11-29T10:44:57.968Z,91579.94
2023-11-29T10:47:37.246Z,91580.94
2023-11-29T10:50:11.630Z,91581.13
2023-11-29T10:52:41.796Z,91581.72
2023-11-29T10:55:12.677Z,91580.06
2023-11-29T10:57:51.166Z,91577.91
2023-11-29T11:00:23.323Z,91581.59
2023-11-29T11:02:55.207Z,91579.69
2023-11-29T11:05:28.351Z,91581.72
2023-11-29T11:07:58.352Z,91579.53
2023-11-29T11:10:29.467Z,91581.06
2023-11-29T11:12:59.976Z,91583.25
2023-11-29T11:15:32.635Z,91587.50
2023-11-29T11:18:28.853Z,91587.41
2023-11-29T11:21:01.129Z,91580.28
2023-11-29T11:23:31.368Z,91582.31
2023-11-29T11:26:01.719Z,91576.19
2023-11-29T11:28:34.231Z,91578.50
2023-11-29T11:31:06.200Z,91577.13
2023-11-29T11:34:14.557Z,91575.38
2023-11-29T11:36:47.541Z,91573.75
2023-11-29T11:39:17.301Z,91581.16
2023-11-29T11:41:46.988Z,91577.19
2023-11-29T11:44:16.647Z,91577.19
2023-11-29T11:46:46.246Z,91577.22
2023-11-29T11:49:17.372Z,91583.63
2023-11-29T11:51:47.141Z,91584.03
2023-11-29T11:54:16.873Z,91583.22
2023-11-29T11:56:46.638Z,91581.72
2023-11-29T11:59:16.827Z,91580.47
2023-11-29T12:01:46.772Z,91586.66
2023-11-29T12:04:20.323Z,91582.16
2023-11-29T12:06:50.828Z,91589.53
2023-11-29T12:09:21.653Z,91598.44
2023-11-29T12:11:51.315Z,91591.44
2023-11-29T12:14:21.580Z,91591.19
2023-11-29T12:16:54.453Z,91581.03
2023-11-29T12:19:25.575Z,91575.84
2023-11-29T12:21:55.338Z,91582.00
2023-11-29T12:24:30.539Z,91575.00
2023-11-29T12:27:09.858Z,91580.88
2023-11-29T12:29:47.676Z,91583.09
2023-11-29T12:32:18.780Z,91593.09
2023-11-29T12:34:49.823Z,91601.31
2023-11-29T12:37:19.652Z,91600.34
2023-11-29T12:39:49.786Z,91603.09
2023-11-29T12:42:19.686Z,91604.16
2023-11-29T12:47:09.772Z,91612.94
2023-11-29T12:49:39.519Z,91613.34
2023-11-29T12:52:09.096Z,91611.16
2023-11-29T12:54:38.809Z,91609.78
2023-11-29T12:57:08.511Z,91608.56
2023-11-29T12:59:38.191Z,91616.22
2023-11-29T13:02:09.652Z,91613.59
2023-11-29T13:04:39.381Z,91618.16
2023-11-29T13:07:09.077Z,91620.59
2023-11-29T13:09:38.633Z,91624.44
2023-11-29T13:12:08.590Z,91631.31
2023-11-29T13:14:43.732Z,91625.25
2023-11-29T13:17:15.203Z,91632.53
2023-11-29T13:19:44.850Z,91633.34
2023-11-29T13:22:14.396Z,91639.13
2023-11-29T13:24:43.842Z,91643.22
2023-11-29T13:27:15.393Z,91636.63
2023-11-29T13:29:46.653Z,91631.16
2023-11-29T13:32:18.372Z,91638.81
2023-11-29T13:34:47.983Z,91645.38
2023-11-29T13:37:17.791Z,91642.72
2023-11-29T13:39:47.278Z,91649.69
2023-11-29T13:42:17.302Z,91656.66
2023-11-29T13:44:47.115Z,91652.50
2023-11-29T13:47:17.997Z,91665.72
2023-11-29T13:49:47.629Z,91670.72
2023-11-29T13:52:23.412Z,91681.75
2023-11-29T13:54:56.204Z,91679.63
2023-11-29T13:57:25.940Z,91687.63
2023-11-29T13:59:55.612Z,91685.31
2023-11-29T14:02:26.735Z,91694.28
2023-11-29T14:04:56.421Z,91684.44
2023-11-29T14:07:26.307Z,91699.13
2023-11-29T14:09:55.798Z,91705.16
2023-11-29T14:12:25.701Z,91712.25
2023-11-29T14:14:55.406Z,91721.59
2023-11-29T14:17:26.525Z,91727.97
2023-11-29T14:19:56.201Z,91732.84
2023-11-29T14:22:25.781Z,91742.25
2023-11-29T14:24:55.404Z,91752.97
2023-11-29T14:27:25.029Z,91760.28
2023-11-29T14:29:54.611Z,91776.69
2023-11-29T14:32:25.738Z,91780.56
2023-11-29T14:34:55.998Z,91777.59
2023-11-29T14:37:25.556Z,91793.88
2023-11-29T14:39:55.299Z,91797.28
2023-11-29T14:42:25.520Z,91803.91
2023-11-29T14:44:55.147Z,91802.88
2023-11-29T14:47:26.303Z,91807.00
2023-11-29T14:49:56.085Z,91817.25
2023-11-29T14:52:25.947Z,91821.50
2023-11-29T14:54:55.674Z,91831.53
2023-11-29T14:57:25.133Z,91836.47
2023-11-29T14:59:54.768Z,91835.06
2023-11-29T15:02:25.844Z,91834.34
2023-11-29T15:04:55.425Z,91836.22
2023-11-29T15:07:25.064Z,91837.19
2023-11-29T15:09:56.302Z,91860.38
2023-11-29T15:12:25.974Z,91861.56
2023-11-29T15:14:55.583Z,91855.78
2023-11-29T15:17:26.641Z,91867.91
2023-11-29T15:19:56.216Z,91862.97
2023-11-29T15:22:25.706Z,91870.38
2023-11-29T15:25:01.781Z,91876.88
2023-11-29T15:27:38.066Z,91888.41
2023-11-29T15:30:09.384Z,91892.97
2023-11-29T15:32:40.605Z,91891.66
2023-11-29T15:35:11.380Z,91897.91
2023-11-29T15:37:41.221Z,91905.78
2023-11-29T15:40:12.299Z,91916.97
2023-11-29T15:42:41.884Z,91910.13
2023-11-29T15:47:09.281Z,91917.19
2023-11-29T15:49:38.961Z,91932.00
2023-11-29T15:52:08.923Z,91930.63
2023-11-29T15:54:38.898Z,91926.94
2023-11-29T15:57:08.921Z,91929.13
2023-11-29T15:59:38.423Z,91935.34
2023-11-29T16:02:09.531Z,91931.31
2023-11-29T16:04:39.402Z,91939.31
2023-11-29T16:07:08.958Z,91939.53
2023-11-29T16:09:38.624Z,91935.38
2023-11-29T16:12:09.228Z,91933.25
2023-11-29T16:14:48.671Z,91940.53
2023-11-29T16:17:19.970Z,91943.84
2023-11-29T16:19:49.573Z,91947.59
2023-11-29T16:22:19.201Z,91956.59
2023-11-29T16:24:48.842Z,91949.72
2023-11-29T16:27:18.576Z,91952.31
2023-11-29T16:29:49.633Z,91959.59
2023-11-29T16:32:20.689Z,91966.25
2023-11-29T16:34:51.721Z,91971.13
2023-11-29T16:37:21.347Z,91975.06
2023-11-29T16:39:51.108Z,91970.53
2023-11-29T16:42:19.839Z,91964.34
2023-11-29T16:44:49.679Z,91963.41
2023-11-29T16:47:21.810Z,91962.28
2023-11-29T16:49:51.475Z,91960.22
2023-11-29T16:52:21.230Z,91965.81
2023-11-29T16:54:51.480Z,91968.28
2023-11-29T16:57:21.038Z,91968.09
2023-11-29T16:59:51.005Z,91986.78
2023-11-29T17:02:22.365Z,91988.31
2023-11-29T17:04:52.127Z,91996.66
2023-11-29T17:07:21.654Z,91994.50
2023-11-29T17:09:51.444Z,91995.09
2023-11-29T17:12:21.060Z,91995.97
2023-11-29T17:14:51.173Z,91990.69
2023-11-29T17:17:23.327Z,91995.50
2023-11-29T17:19:53.775Z,92008.88
2023-11-29T17:22:23.313Z,92018.03
2023-11-29T17:24:52.864Z,92010.44
2023-11-29T17:27:22.737Z,92021.88
2023-11-29T17:29:52.452Z,92032.66
2023-11-29T17:32:23.477Z,92024.44
2023-11-29T17:34:53.289Z,92041.69
2023-11-29T17:37:22.850Z,92039.94
2023-11-29T17:39:52.510Z,92042.88
2023-11-29T17:42:22.088Z,92047.97
2023-11-29T17:44:51.696Z,92054.28
2023-11-29T17:47:24.132Z,92062.13
2023-11-29T17:49:53.889Z,92059.31
2023-11-29T17:52:23.604Z,92065.13
2023-11-29T17:54:53.261Z,92064.97
2023-11-29T17:57:22.752Z,92064.97
2023-11-29T17:59:54.035Z,92065.03
2023-11-29T18:02:27.526Z,92060.81
2023-11-29T18:04:57.152Z,92055.75
2023-11-29T18:07:26.618Z,92067.72
2023-11-29T18:09:56.237Z,92059.06
2023-11-29T18:12:25.858Z,92065.03
2023-11-29T18:14:55.528Z,92068.63
2023-11-29T18:17:26.785Z,92078.69
2023-11-29T18:19:56.414Z,92091.47
2023-11-29T18:22:26.272Z,92093.94
2023-11-29T18:24:56.019Z,92089.06
2023-11-29T18:27:25.842Z,92086.47
2023-11-29T18:29:55.436Z,92094.78
2023-11-29T18:32:26.642Z,92097.34
2023-11-29T18:34:56.289Z,92106.22
2023-11-29T18:37:25.946Z,92111.97
2023-11-29T18:39:55.562Z,92120.50
2023-11-29T18:42:27.314Z,92119.44
2023-11-29T18:47:10.299Z,92110.13
2023-11-29T18:49:40.024Z,92119.44
2023-11-29T18:52:10.144Z,92120.91
2023-11-29T18:54:39.728Z,92116.31
2023-11-29T18:57:09.376Z,92120.75
2023-11-29T18:59:43.744Z,92115.50
2023-11-29T19:02:15.069Z,92117.16
2023-11-29T19:04:46.348Z,92120.53
2023-11-29T19:07:17.099Z,92127.91
2023-11-29T19:09:46.802Z,92129.56
2023-11-29T19:12:16.405Z,92120.09
2023-11-29T19:14:46.065Z,92125.78
2023-11-29T19:17:17.234Z,92138.91
2023-11-29T19:19:46.943Z,92137.16
2023-11-29T19:22:16.592Z,92135.56
2023-11-29T19:24:46.211Z,92139.25
2023-11-29T19:27:16.048Z,92141.25
2023-11-29T19:29:46.263Z,92144.25
2023-11-29T19:32:17.483Z,92140.94
2023-11-29T19:34:47.339Z,92142.69
2023-11-29T19:37:17.221Z,92147.09
2023-11-29T19:39:46.901Z,92151.16
2023-11-29T19:42:16.644Z,92151.16
2023-11-29T19:44:46.207Z,92144.75
2023-11-29T19:47:19.377Z,92146.75
2023-11-29T19:49:51.230Z,92143.22
2023-11-29T19:52:22.003Z,92139.81
2023-11-29T19:54:51.788Z,92147.28
2023-11-29T19:57:21.514Z,92145.69
2023-11-29T19:59:52.286Z,92138.81
2023-11-29T20:02:23.904Z,92148.78
2023-11-29T20:04:53.681Z,92152.59
2023-11-29T20:07:23.301Z,92147.25
2023-11-29T20:09:53.773Z,92154.53
2023-11-29T20:12:23.525Z,92146.84
2023-11-29T20:14:57.747Z,92146.75
2023-11-29T20:17:29.633Z,92154.63
2023-11-29T20:20:04.157Z,92152.38
2023-11-29T20:22:40.685Z,92150.56
2023-11-29T20:25:11.423Z,92153.19
2023-11-29T20:27:43.231Z,92153.69
2023-11-29T20:30:14.954Z,92153.00
2023-11-29T20:32:46.063Z,92149.69
2023-11-29T20:35:25.865Z,92152.41
2023-11-29T20:38:05.319Z,92167.16
2023-11-29T20:40:44.241Z,92156.97
2023-11-29T20:43:18.120Z,92155.00
2023-11-29T20:45:48.675Z,92154.84
2023-11-29T20:48:19.821Z,92154.50
2023-11-29T20:50:49.543Z,92162.44
2023-11-29T20:53:19.944Z,92172.63
2023-11-29T20:55:50.996Z,92161.63
2023-11-29T20:58:22.408Z,92172.03
2023-11-29T21:00:52.931Z,92166.31
2023-11-29T21:03:24.095Z,92172.81
2023-11-29T21:05:53.933Z,92173.03
2023-11-29T21:08:23.577Z,92175.56
2023-11-29T21:10:54.157Z,92170.78
2023-11-29T21:13:24.710Z,92175.97
2023-11-29T21:15:54.614Z,92172.44
2023-11-29T21:18:25.903Z,92178.63
2023-11-29T21:20:55.765Z,92184.56
2023-11-29T21:23:25.413Z,92181.13
2023-11-29T21:25:55.313Z,92186.34
2023-11-29T21:28:25.160Z,92183.69
2023-11-29T21:30:55.619Z,92181.34
2023-11-29T21:33:26.661Z,92183.53
2023-11-29T21:35:56.378Z,92180.28
2023-11-29T21:38:26.001Z,92181.81
2023-11-29T21:40:55.747Z,92183.63
2023-11-29T21:43:25.287Z,92189.38
2023-11-29T21:47:08.953Z,92195.25
2023-11-29T21:49:38.683Z,92191.84
2023-11-29T21:52:08.970Z,92203.06
2023-11-29T21:54:38.841Z,92204.94
2023-11-29T21:57:08.737Z,92200.84
2023-11-29T21:59:38.353Z,92204.25
2023-11-29T22:02:09.824Z,92196.53
2023-11-29T22:04:39.499Z,92186.66
2023-11-29T22:07:09.028Z,92200.56
2023-11-29T22:09:40.384Z,92202.50
2023-11-29T22:12:10.463Z,92201.06
2023-11-29T22:14:42.917Z,92204.75
2023-11-29T22:17:13.975Z,92191.09
2023-11-29T22:19:44.544Z,92193.09
2023-11-29T22:22:14.032Z,92196.72
2023-11-29T22:24:43.584Z,92190.41
2023-11-29T22:27:13.450Z,92190.53
2023-11-29T22:29:43.192Z,92191.44
2023-11-29T22:32:14.351Z,92195.66
2023-11-29T22:34:45.019Z,92201.72
2023-11-29T22:37:14.699Z,92204.41
2023-11-29T22:39:44.395Z,92207.81
2023-11-29T22:42:14.129Z,92217.63
2023-11-29T22:44:45.381Z,92217.56
2023-11-29T22:47:17.058Z,92209.50
2023-11-29T22:49:46.811Z,92209.06
2023-11-29T22:52:16.447Z,92215.47
2023-11-29T22:54:46.337Z,92209.81
2023-11-29T22:57:16.189Z,92220.16
2023-11-29T22:59:47.765Z,92216.53
2023-11-29T23:02:18.719Z,92214.44
2023-11-29T23:04:48.327Z,92227.91
2023-11-29T23:07:18.019Z,92237.31
2023-11-29T23:09:47.578Z,92246.09
2023-11-29T23:12:17.296Z,92251.22
2023-11-29T23:14:46.904Z,92244.56
2023-11-29T23:17:19.814Z,92255.09
2023-11-29T23:19:49.454Z,92263.91
2023-11-29T23:22:19.141Z,92261.22
2023-11-29T23:24:48.780Z,92261.06
2023-11-29T23:27:18.475Z,92262.88
2023-11-29T23:29:48.095Z,92261.34
2023-11-29T23:32:19.136Z,92272.44
2023-11-29T23:34:48.668Z,92264.94
2023-11-29T23:37:18.201Z,92269.25
2023-11-29T23:39:47.877Z,92273.56
2023-11-29T23:42:18.157Z,92271.19
2023-11-29T23:44:47.842Z,92276.34
2023-11-29T23:47:19.102Z,92283.19
2023-11-29T23:49:48.732Z,92278.00
2023-11-29T23:52:18.740Z,92284.06
2023-11-29T23:54:48.352Z,92288.38
2023-11-29T23:57:18.162Z,92293.72
2023-11-29T23:59:47.735Z,92306.53
